메인 페이지
METAR-TAF:

METAR-TAF

공항 :

파트나, 인도

위도: 25-36N, 경도: 085-06E, 고도: 51m

현재 날씨관측

예보는 35분 전, 00:00시(UTC)에 발표되었습니다.
무풍
온도 10°C
습도 100%
기압 1012 hPa
시정: 0100m
안개

METAR: VEPT 200000Z 00000KT 0100 R25/0200 FG VV/// 10/10 Q1012 NOSIG

시각: 06:05 (00:35 UTC)

예보

예보는 1 시간 35분 전, 23:00시(UTC)에 발표되었습니다.
예보 대상 시간: 20일 00시부터 20일 09시까지 (UTC)
kt
시정: 0500m
안개
전환 중
20일 04시부터 20일 06시까지 (UTC)
북동5kt
시정: 1500m
박무
전환 중
20일 08시부터 20일 09시까지 (UTC)
시정: 2500m
연무

TAF: VEPT 192300Z 2000/2009 00000KT 0500 FG VV/// BECMG 2004/2006 05005KT 1500 BR BECMG 2008/2009 2500 HZ

4,000개 이상의 공항 관측 자료 및 예보 (METAR 및 TAF 보고).

지도상에서 검색 가능한 기상관측소가 노란 점과 빨간 점으로 표시되어 있습니다.

기상관측소 명을 보려면 표시 위로 마우스를 이동하세요.

날씨 관측과 예보를 보려면 클릭하세요.

지도 변경 : 확대하려면 엑스 표시가 있는 녹색 버튼, 축소하려면 빼기 표시가 있는 녹색 버튼, 다음 페이지의 지도를 보려면 녹색 화살표를 클릭하세요.


METAR-TAF: